Terminal Aerodrome Forecast
Issued by NWS Tallahassee, FL

Home | Current Version | Previous Version | Text Only | Print | Product List | Glossary On
Versions: 1 2 3 4 5 6 7 8 9 10 11 12
000
FTUS42 KTAE 290532
TAFTLH
TAF
KTLH 290532Z 2906/3006 08004KT P6SM OVC250
     FM291200 08004KT P6SM VCSH SCT020 BKN200
     FM291500 11006KT P6SM SHRA VCTS BKN030CB
      TEMPO 2918/2921 1SM +TSRA
     FM300000 VRB03KT P6SM BKN250=

USA.gov is the U.S. government's official web portal to all federal, state and local government web resources and services.